Time;durP1;ratioP1;P1;durP2;ratioP2;P2;SDS_P1;SDS_P2;PMS_P1;PMS_P2;Temp;Humidity;BMP_temperature;BMP_pressure;BME280_temperature;BME280_humidity;BME280_pressure;Samples;Min_cycle;Max_cycle;Signal;HPM_P1;HPM_P2
2022/06/01 00:00:11;;;;;;;6.05;2.13;;;;;;;10.84;100.00;101027.47;4788152;30;20042;-80
2022/06/01 00:02:37;;;;;;;9.00;2.15;;;;;;;10.89;100.00;101043.03;4794306;29;20050;-79
2022/06/01 00:05:04;;;;;;;5.80;2.40;;;;;;;10.75;100.00;101028.63;4781388;30;20063;-79
2022/06/01 00:07:29;;;;;;;6.07;2.50;;;;;;;10.71;100.00;101024.66;4779452;30;20487;-80
2022/06/01 00:09:55;;;;;;;9.85;2.15;;;;;;;10.84;100.00;101040.94;4770645;30;20205;-80
2022/06/01 00:12:21;;;;;;;8.57;2.30;;;;;;;10.80;100.00;101026.19;4774045;30;20111;-78
2022/06/01 00:14:47;;;;;;;7.15;2.35;;;;;;;10.92;100.00;101039.94;4773762;30;20059;-81
2022/06/01 00:17:12;;;;;;;4.90;2.22;;;;;;;10.99;100.00;101055.13;4784889;30;20036;-79
2022/06/01 00:19:38;;;;;;;10.60;2.40;;;;;;;10.99;100.00;101039.00;4770497;30;20047;-79
2022/06/01 00:22:12;;;;;;;7.28;2.38;;;;;;;10.97;100.00;101038.34;4787326;30;20388;-81
2022/06/01 00:24:42;;;;;;;6.57;2.20;;;;;;;11.05;100.00;101042.72;4773087;30;20027;-79
2022/06/01 00:27:08;;;;;;;5.43;2.45;;;;;;;11.12;100.00;101054.38;4786017;30;20165;-79
2022/06/01 00:29:35;;;;;;;10.57;2.40;;;;;;;11.14;100.00;101054.19;4788756;29;20181;-79
2022/06/01 00:32:01;;;;;;;5.53;2.17;;;;;;;11.04;100.00;101027.63;4789923;29;20042;-79
2022/06/01 00:34:26;;;;;;;4.63;2.30;;;;;;;11.14;100.00;101044.25;4787791;29;20039;-79
2022/06/01 00:36:52;;;;;;;6.97;2.60;;;;;;;11.13;100.00;101042.59;4788588;29;20133;-79
2022/06/01 00:39:17;;;;;;;11.95;2.50;;;;;;;11.10;100.00;101053.75;4781075;30;20055;-79
2022/06/01 00:41:43;;;;;;;10.77;3.22;;;;;;;11.05;100.00;101042.72;4772812;30;20047;-79
2022/06/01 00:44:08;;;;;;;9.18;2.50;;;;;;;11.09;100.00;101049.38;4772908;30;20063;-79
2022/06/01 00:46:33;;;;;;;8.70;2.35;;;;;;;11.08;100.00;101058.50;4770903;30;20455;-79
2022/06/01 00:49:20;;;;;;;9.18;2.45;;;;;;;11.02;100.00;101049.34;4786193;29;20073;-80
2022/06/01 00:51:49;;;;;;;6.97;2.70;;;;;;;11.01;100.00;101046.84;4772678;30;20051;-79
2022/06/01 00:54:15;;;;;;;9.20;2.88;;;;;;;11.04;100.00;101051.84;4771645;30;20078;-79
2022/06/01 00:56:49;;;;;;;7.15;2.50;;;;;;;11.07;100.00;101048.75;4779091;30;20096;-81
2022/06/01 00:59:19;;;;;;;6.47;2.70;;;;;;;11.04;100.00;101038.38;4772708;30;20114;-80
2022/06/01 01:01:45;;;;;;;8.57;2.90;;;;;;;11.08;100.00;101036.13;4776209;30;20066;-79
2022/06/01 01:04:11;;;;;;;8.70;2.70;;;;;;;11.09;100.00;101035.09;4789243;30;20039;-79
2022/06/01 01:06:40;;;;;;;8.35;2.78;;;;;;;11.00;100.00;101021.78;4787585;30;20486;-80
2022/06/01 01:09:07;;;;;;;7.97;2.97;;;;;;;11.08;100.00;101034.25;4774049;29;20028;-79
2022/06/01 01:11:58;;;;;;;8.68;2.90;;;;;;;11.04;100.00;101024.91;4771713;30;20131;-81
2022/06/01 01:14:28;;;;;;;8.05;2.72;;;;;;;10.98;100.00;101023.84;4771953;30;20048;-79
2022/06/01 01:16:54;;;;;;;8.02;2.63;;;;;;;10.96;100.00;101016.97;4756591;30;20429;-81
2022/06/01 01:19:31;;;;;;;9.77;2.83;;;;;;;10.96;100.00;101017.84;4770948;30;20398;-80
2022/06/01 01:22:36;;;;;;;7.63;3.00;;;;;;;10.93;100.00;101022.78;4786825;30;20107;-81
2022/06/01 01:25:16;;;;;;;6.97;2.88;;;;;;;10.87;100.00;101018.19;4788450;30;20088;-78
2022/06/01 01:27:42;;;;;;;5.85;2.58;;;;;;;10.84;100.00;101024.78;4772280;30;20123;-80
2022/06/01 01:30:41;;;;;;;9.80;2.67;;;;;;;10.80;100.00;101016.25;4770812;30;20101;-79
2022/06/01 01:33:06;;;;;;;9.30;2.92;;;;;;;10.76;100.00;101017.69;4789346;29;20044;-81
2022/06/01 01:35:32;;;;;;;8.85;3.15;;;;;;;10.74;100.00;101014.34;4771264;30;20173;-81
2022/06/01 01:38:01;;;;;;;8.55;2.42;;;;;;;10.63;100.00;100996.06;4771537;30;20491;-81
2022/06/01 01:40:26;;;;;;;7.80;2.63;;;;;;;10.56;100.00;100995.13;4786894;29;20051;-81
2022/06/01 01:42:57;;;;;;;9.00;2.90;;;;;;;10.64;100.00;101013.03;4769991;30;20032;-81
2022/06/01 01:45:27;;;;;;;9.57;2.80;;;;;;;10.55;100.00;101001.56;4772224;30;20052;-81
2022/06/01 01:47:52;;;;;;;12.70;2.80;;;;;;;10.56;100.00;101008.59;4771791;30;20043;-80
2022/06/01 01:50:19;;;;;;;8.38;2.90;;;;;;;10.56;100.00;101011.28;4770132;30;20032;-80
2022/06/01 01:52:45;;;;;;;9.05;2.78;;;;;;;10.45;100.00;100998.38;4771063;30;20081;-81
2022/06/01 01:56:03;;;;;;;12.18;3.33;;;;;;;10.50;100.00;101007.53;4770943;30;20497;-79
2022/06/01 01:59:16;;;;;;;9.23;2.70;;;;;;;10.28;100.00;100990.56;4767165;30;20140;-79
2022/06/01 02:01:53;;;;;;;11.00;3.45;;;;;;;10.37;100.00;101009.28;4736876;30;20055;-80
2022/06/01 02:07:41;;;;;;;10.90;3.30;;;;;;;10.30;100.00;101011.91;4772279;30;20123;-79
2022/06/01 02:12:52;;;;;;;6.97;2.78;;;;;;;10.17;100.00;101012.56;4769743;30;20383;-79
2022/06/01 02:15:25;;;;;;;10.45;3.00;;;;;;;10.19;100.00;101020.44;4770113;30;20108;-81
2022/06/01 02:17:52;;;;;;;9.50;2.83;;;;;;;10.05;100.00;101001.47;4771369;30;20120;-78
2022/06/01 02:20:35;;;;;;;6.80;2.83;;;;;;;10.07;100.00;101010.19;4758295;29;20046;-80
2022/06/01 02:23:02;;;;;;;8.32;2.78;;;;;;;10.04;100.00;101009.75;4787772;30;20046;-79
2022/06/01 02:25:29;;;;;;;10.00;3.65;;;;;;;10.02;100.00;101025.22;4785774;30;20156;-78
2022/06/01 02:27:57;;;;;;;9.05;3.00;;;;;;;10.02;100.00;101017.16;4772962;30;20488;-80
2022/06/01 02:30:27;;;;;;;9.93;2.70;;;;;;;9.98;100.00;101013.19;4772652;30;20450;-79
2022/06/01 02:32:54;;;;;;;10.40;3.10;;;;;;;9.86;100.00;101000.22;4771303;30;20036;-79
2022/06/01 02:35:22;;;;;;;7.00;2.85;;;;;;;9.91;100.00;101020.34;4770184;30;20032;-79
2022/06/01 02:37:52;;;;;;;12.13;3.28;;;;;;;9.89;100.00;101017.81;4773875;30;20118;-80
2022/06/01 02:40:20;;;;;;;9.02;2.78;;;;;;;9.87;100.00;101012.66;4771293;30;20050;-79
2022/06/01 02:42:51;;;;;;;6.65;2.63;;;;;;;9.91;100.00;101026.56;4768758;30;20024;-79
2022/06/01 02:45:20;;;;;;;8.98;2.60;;;;;;;9.78;100.00;101008.41;4771176;30;20046;-79
2022/06/01 02:47:47;;;;;;;7.03;2.58;;;;;;;9.79;100.00;101017.31;4769163;30;20031;-79
2022/06/01 02:50:16;;;;;;;6.78;2.67;;;;;;;9.75;100.00;101014.16;4772119;30;20050;-81
2022/06/01 02:52:42;;;;;;;12.27;3.10;;;;;;;9.74;100.00;101000.94;4773195;30;20054;-81
2022/06/01 02:55:10;;;;;;;7.43;3.30;;;;;;;9.93;100.00;101018.28;4771360;30;20091;-81
2022/06/01 02:57:37;;;;;;;6.90;3.08;;;;;;;9.94;100.00;101011.91;4772789;30;20122;-81
2022/06/01 03:00:10;;;;;;;6.55;2.42;;;;;;;10.00;100.00;101013.81;4756765;30;20058;-81
2022/06/01 03:02:40;;;;;;;8.38;3.00;;;;;;;10.11;100.00;101018.69;4782237;30;20122;-81
2022/06/01 03:05:05;;;;;;;10.20;2.72;;;;;;;10.11;100.00;101010.63;4791526;30;20074;-80
2022/06/01 03:07:32;;;;;;;9.52;3.08;;;;;;;10.23;100.00;101005.56;4789236;29;20113;-81
2022/06/01 03:09:57;;;;;;;9.40;3.17;;;;;;;10.66;100.00;101014.50;4791726;30;20039;-81
2022/06/01 03:12:23;;;;;;;12.27;2.92;;;;;;;10.76;100.00;101012.31;4789612;29;20027;-80
2022/06/01 03:14:48;;;;;;;8.45;2.80;;;;;;;10.80;100.00;101013.56;4787942;30;20110;-81
2022/06/01 03:17:13;;;;;;;8.65;3.17;;;;;;;10.84;100.00;101021.25;4791125;30;20523;-80
2022/06/01 03:19:39;;;;;;;6.40;2.88;;;;;;;10.76;100.00;100998.00;4790244;30;20107;-80
2022/06/01 03:22:04;;;;;;;8.75;2.90;;;;;;;10.81;100.00;101000.94;4775184;29;20043;-80
2022/06/01 03:24:30;;;;;;;10.35;3.00;;;;;;;10.90;100.00;101009.72;4758281;30;20047;-80
2022/06/01 03:26:56;;;;;;;7.20;2.92;;;;;;;10.97;100.00;101005.19;4772900;30;20039;-81
2022/06/01 03:29:24;;;;;;;9.52;3.15;;;;;;;10.97;100.00;100997.13;4787326;30;20114;-81
2022/06/01 03:31:50;;;;;;;7.35;2.97;;;;;;;11.11;100.00;101006.13;4790141;30;20031;-79
2022/06/01 03:34:16;;;;;;;8.35;2.90;;;;;;;11.25;100.00;101007.84;4783869;29;20044;-80
2022/06/01 03:36:42;;;;;;;8.77;2.88;;;;;;;11.30;100.00;101000.00;4757983;30;20046;-79
2022/06/01 03:39:07;;;;;;;8.70;2.97;;;;;;;11.55;100.00;101011.09;4773267;30;20031;-79
2022/06/01 03:41:32;;;;;;;7.60;2.70;;;;;;;12.01;100.00;101007.78;4770653;30;20108;-79
2022/06/01 03:46:42;;;;;;;7.53;2.67;;;;;;;13.37;100.00;100991.97;4790838;30;20691;-81
2022/06/01 03:49:07;;;;;;;7.05;2.20;;;;;;;14.10;100.00;100972.72;4786027;30;20068;-80
2022/06/01 03:51:33;;;;;;;6.82;2.40;;;;;;;14.61;100.00;100976.31;4783568;30;20039;-81
2022/06/01 03:53:58;;;;;;;6.93;2.53;;;;;;;15.54;100.00;100990.78;4757961;30;20445;-80
2022/06/01 03:56:24;;;;;;;6.00;2.22;;;;;;;16.50;100.00;101000.72;4762023;30;20044;-81
2022/06/01 03:58:52;;;;;;;7.95;2.35;;;;;;;17.06;100.00;100998.56;4772329;30;20050;-79
2022/06/01 04:01:18;;;;;;;5.93;1.80;;;;;;;17.44;100.00;100983.59;4784935;30;20035;-79
2022/06/01 04:03:46;;;;;;;6.95;2.10;;;;;;;18.04;100.00;100989.41;4782893;30;20346;-78
2022/06/01 04:06:11;;;;;;;6.65;2.33;;;;;;;18.29;100.00;100990.97;4784264;30;20055;-79
2022/06/01 04:08:37;;;;;;;7.75;2.22;;;;;;;18.42;100.00;100990.66;4780231;29;20063;-78
2022/06/01 04:11:04;;;;;;;8.57;2.40;;;;;;;18.34;100.00;100985.59;4775545;29;20375;-78
2022/06/01 04:13:30;;;;;;;8.45;2.30;;;;;;;18.66;100.00;100990.50;4779970;30;20078;-86
2022/06/01 04:15:55;;;;;;;5.85;2.25;;;;;;;18.35;100.00;100970.09;4783839;29;20036;-81
2022/06/01 04:18:21;;;;;;;8.50;1.80;;;;;;;18.60;100.00;100986.84;4785629;29;20046;-81
2022/06/01 04:20:50;;;;;;;7.55;2.25;;;;;;;18.37;100.00;100987.00;4774995;30;20035;-79
2022/06/01 04:23:15;;;;;;;6.88;1.92;;;;;;;17.99;100.00;100975.72;4777423;30;20069;-83
2022/06/01 04:25:41;;;;;;;7.45;2.00;;;;;;;16.67;100.00;100987.28;4784972;29;20066;-83
2022/06/01 04:28:07;;;;;;;6.55;1.80;;;;;;;16.48;100.00;100983.00;4786936;30;20047;-85
2022/06/01 04:30:32;;;;;;;8.45;2.00;;;;;;;15.90;100.00;100984.50;4787057;30;20047;-82
2022/06/01 04:32:58;;;;;;;5.07;1.67;;;;;;;15.32;100.00;100974.97;4783331;30;20036;-86
2022/06/01 04:35:24;;;;;;;6.50;1.80;;;;;;;15.45;100.00;100985.66;4793047;30;20035;-83
2022/06/01 04:37:52;;;;;;;7.00;1.77;;;;;;;15.44;100.00;100977.75;4784069;30;20027;-85
2022/06/01 04:40:21;;;;;;;7.05;2.03;;;;;;;15.13;100.00;100986.84;4788241;29;20031;-83
2022/06/01 04:42:47;;;;;;;6.30;1.48;;;;;;;14.94;100.00;100981.44;4783927;30;20370;-82
2022/06/01 04:45:15;;;;;;;6.53;1.67;;;;;;;14.75;100.00;100972.44;4777302;30;20063;-86
2022/06/01 04:47:42;;;;;;;4.97;1.60;;;;;;;14.80;100.00;100979.88;4790075;30;20036;-84
2022/06/01 04:50:09;;;;;;;5.85;1.73;;;;;;;15.33;100.00;100979.34;4793267;30;20032;-84
2022/06/01 04:52:35;;;;;;;3.03;1.55;;;;;;;14.65;100.00;100982.13;4790202;29;20048;-86
2022/06/01 04:55:01;;;;;;;5.88;1.60;;;;;;;15.63;100.00;100979.41;4798330;29;20043;-86
2022/06/01 04:57:27;;;;;;;4.13;1.48;;;;;;;15.91;100.00;100975.28;4782460;30;20073;-86
2022/06/01 04:59:52;;;;;;;4.88;1.73;;;;;;;16.12;100.00;100987.50;4795239;30;20035;-87
2022/06/01 05:02:17;;;;;;;8.60;1.70;;;;;;;16.40;100.00;100968.72;4791751;29;20060;-87
2022/06/01 05:04:43;;;;;;;7.80;1.40;;;;;;;15.44;100.00;100984.00;4793032;30;20040;-86
2022/06/01 05:07:08;;;;;;;5.20;1.60;;;;;;;15.98;100.00;100976.03;4781342;30;20043;-85
2022/06/01 05:09:34;;;;;;;3.63;1.50;;;;;;;16.44;100.00;100983.47;4777218;30;20362;-81
2022/06/01 05:11:59;;;;;;;8.30;1.52;;;;;;;16.19;100.00;100980.09;4782740;30;20074;-84
2022/06/01 05:14:25;;;;;;;6.63;1.70;;;;;;;15.76;100.00;100964.88;4802562;29;20093;-86
2022/06/01 05:16:51;;;;;;;4.88;1.50;;;;;;;16.37;100.00;100982.75;4790595;29;20043;-86
2022/06/01 05:19:18;;;;;;;6.43;1.58;;;;;;;16.45;100.00;100978.84;4772002;30;20051;-85
2022/06/01 05:21:43;;;;;;;4.97;1.50;;;;;;;16.01;100.00;100978.28;4789135;29;20067;-86
2022/06/01 05:24:08;;;;;;;4.05;1.50;;;;;;;16.03;100.00;100980.78;4781976;30;20124;-84
2022/06/01 05:26:34;;;;;;;6.03;1.42;;;;;;;15.93;100.00;100982.16;4784176;29;20072;-83
2022/06/01 05:28:59;;;;;;;7.75;1.52;;;;;;;16.32;100.00;100977.19;4782096;30;20039;-81
2022/06/01 05:31:24;;;;;;;5.32;1.30;;;;;;;16.26;100.00;100989.00;4789182;30;20035;-83
2022/06/01 05:33:50;;;;;;;5.65;1.40;;;;;;;16.04;100.00;100991.41;4782230;30;20048;-84
2022/06/01 05:36:17;;;;;;;8.35;1.73;;;;;;;16.38;100.00;100991.72;4774866;30;20123;-83
2022/06/01 05:38:45;;;;;;;5.47;1.60;;;;;;;16.20;100.00;100985.31;4802017;29;20035;-85
2022/06/01 05:41:11;;;;;;;9.18;1.50;;;;;;;16.33;100.00;100989.72;4785333;30;20069;-85
2022/06/01 05:43:36;;;;;;;6.35;2.00;;;;;;;15.83;100.00;100990.03;4783476;30;20032;-85
2022/06/01 05:46:03;;;;;;;8.68;1.50;;;;;;;15.59;100.00;100977.34;4795081;30;20036;-85
2022/06/01 05:48:28;;;;;;;4.20;1.40;;;;;;;15.82;100.00;100993.78;4768710;30;20036;-85
2022/06/01 05:50:54;;;;;;;5.43;1.50;;;;;;;15.85;100.00;100985.19;4787238;30;20120;-85
2022/06/01 05:53:20;;;;;;;6.50;1.25;;;;;;;16.07;100.00;100992.81;4797333;30;20094;-87
2022/06/01 05:55:46;;;;;;;7.78;1.58;;;;;;;16.06;100.00;100983.00;4777725;30;20043;-86
2022/06/01 05:58:20;;;;;;;5.10;1.40;;;;;;;15.97;100.00;100971.66;4789400;30;20058;-86
2022/06/01 06:00:48;;;;;;;4.97;1.30;;;;;;;16.35;100.00;100998.44;4784815;29;20038;-86
2022/06/01 06:03:14;;;;;;;4.18;1.23;;;;;;;16.62;100.00;100985.28;4785426;30;20124;-85
2022/06/01 06:08:24;;;;;;;4.67;1.60;;;;;;;16.82;99.90;100986.84;4787360;30;20038;-86
2022/06/01 06:10:50;;;;;;;4.75;1.42;;;;;;;16.94;99.81;100973.25;4793786;30;20099;-86
2022/06/01 06:13:16;;;;;;;2.30;1.00;;;;;;;16.95;98.05;100983.88;4792003;30;20042;-85
2022/06/01 06:15:41;;;;;;;5.15;1.20;;;;;;;16.73;95.88;100988.25;4794613;29;20042;-86
2022/06/01 06:18:11;;;;;;;4.78;1.48;;;;;;;16.77;95.49;100993.00;4791543;29;20127;-87
2022/06/01 06:20:37;;;;;;;3.92;1.17;;;;;;;16.53;95.58;100994.00;4787909;30;20024;-82
2022/06/01 06:23:03;;;;;;;5.28;1.60;;;;;;;16.31;96.97;100996.44;4794486;29;20032;-86
2022/06/01 06:25:30;;;;;;;4.40;1.80;;;;;;;16.04;98.34;100988.69;4795000;29;20087;-85
2022/06/01 06:27:55;;;;;;;3.13;1.10;;;;;;;16.01;99.30;100991.84;4784457;29;20069;-86
2022/06/01 06:30:20;;;;;;;4.63;1.58;;;;;;;15.83;100.00;100978.34;4790273;30;20051;-83
2022/06/01 06:32:46;;;;;;;2.15;1.00;;;;;;;15.73;100.00;100998.72;4777702;30;20111;-86
2022/06/01 06:35:13;;;;;;;3.97;1.30;;;;;;;15.95;100.00;100996.31;4789218;29;20039;-86
2022/06/01 06:37:38;;;;;;;3.22;1.48;;;;;;;16.07;100.00;100982.78;4800412;30;20038;-85
2022/06/01 06:40:06;;;;;;;2.78;1.10;;;;;;;15.77;100.00;101001.78;4803141;29;20467;-84
2022/06/01 06:42:31;;;;;;;5.03;1.30;;;;;;;15.97;99.91;100990.66;4797343;30;20023;-84
2022/06/01 06:44:58;;;;;;;5.75;1.35;;;;;;;15.82;99.93;101004.63;4786745;29;20047;-85
2022/06/01 06:47:23;;;;;;;4.97;1.45;;;;;;;15.92;98.61;101004.09;4802700;29;20522;-86
2022/06/01 06:49:49;;;;;;;2.53;1.15;;;;;;;15.76;98.54;100997.44;4776673;30;20032;-84
2022/06/01 06:52:15;;;;;;;6.32;1.45;;;;;;;15.62;100.00;100998.59;4799902;30;20051;-82
2022/06/01 06:54:41;;;;;;;2.40;1.20;;;;;;;15.56;100.00;100994.06;4804266;30;20050;-85
2022/06/01 06:57:07;;;;;;;5.32;1.20;;;;;;;15.68;100.00;101014.81;4780007;30;20040;-85
2022/06/01 06:59:33;;;;;;;7.70;1.63;;;;;;;15.58;100.00;100989.28;4786362;30;20031;-86
2022/06/01 07:01:58;;;;;;;4.22;1.17;;;;;;;15.83;100.00;101017.16;4817153;29;20054;-86
2022/06/01 07:04:23;;;;;;;4.38;1.30;;;;;;;15.85;100.00;101016.91;4797860;30;20039;-86
2022/06/01 07:06:55;;;;;;;3.78;1.08;;;;;;;16.25;100.00;100994.63;4798589;30;20056;-86
2022/06/01 07:09:20;;;;;;;4.57;1.48;;;;;;;16.08;100.00;101024.34;4794200;29;20035;-84
2022/06/01 07:11:46;;;;;;;2.78;1.15;;;;;;;15.73;100.00;101016.88;4780136;30;20047;-86
2022/06/01 07:14:11;;;;;;;4.10;1.45;;;;;;;15.96;99.40;101014.25;4793168;30;20051;-85
2022/06/01 07:16:37;;;;;;;3.83;1.60;;;;;;;16.02;98.82;101027.97;4788216;30;20375;-85
2022/06/01 07:19:04;;;;;;;5.53;1.30;;;;;;;15.94;97.94;101024.50;4795465;30;20039;-85
2022/06/01 07:21:31;;;;;;;4.80;1.40;;;;;;;15.57;98.80;101022.88;4794597;30;20031;-87
2022/06/01 07:23:57;;;;;;;4.88;1.45;;;;;;;15.44;100.00;101029.28;4796383;30;20054;-84
2022/06/01 07:26:33;;;;;;;3.83;1.45;;;;;;;15.44;100.00;101032.81;4799354;29;20114;-86
2022/06/01 07:28:59;;;;;;;5.55;1.58;;;;;;;15.43;100.00;101024.91;4789359;30;20063;-85
2022/06/01 07:31:26;;;;;;;4.63;1.40;;;;;;;15.95;100.00;101026.16;4788092;29;20027;-84
2022/06/01 07:33:52;;;;;;;4.57;1.40;;;;;;;15.88;100.00;101028.13;4783476;30;20124;-84
2022/06/01 07:36:17;;;;;;;4.38;1.52;;;;;;;15.83;100.00;101014.44;4781840;30;20100;-84
2022/06/01 07:43:05;;;;;;;6.50;1.83;;;;;;;16.10;98.70;101024.94;4797417;30;20191;-84
2022/06/01 07:44:43;;;;;;;8.68;2.05;;;;;;;16.10;98.62;101035.81;4790945;30;20043;-86
2022/06/01 07:47:10;;;;;;;3.97;1.20;;;;;;;15.82;98.97;101026.34;4799019;29;20039;-85
2022/06/01 07:49:36;;;;;;;4.63;1.30;;;;;;;15.54;99.86;101018.72;4787848;29;20109;-86
2022/06/01 07:52:06;;;;;;;3.97;1.30;;;;;;;15.49;98.61;101026.69;4788096;29;20035;-83
2022/06/01 07:54:32;;;;;;;3.72;1.10;;;;;;;15.27;98.19;101019.03;4785548;30;20388;-84
2022/06/01 07:56:58;;;;;;;2.55;1.02;;;;;;;15.20;99.41;101028.28;4780792;30;20081;-84
2022/06/01 07:59:23;;;;;;;4.35;1.40;;;;;;;15.27;99.88;101029.88;4785419;30;20078;-85
2022/06/01 08:01:48;;;;;;;5.22;1.40;;;;;;;15.80;99.91;101023.03;4792298;30;20052;-83
2022/06/01 08:04:16;;;;;;;4.63;1.30;;;;;;;15.97;98.13;101026.78;4769967;30;20051;-85
2022/06/01 08:06:41;;;;;;;5.18;1.30;;;;;;;16.42;96.96;101026.34;4781634;30;20050;-86
2022/06/01 08:09:07;;;;;;;4.05;1.20;;;;;;;16.34;97.31;101004.94;4800530;29;20039;-87
2022/06/01 08:14:17;;;;;;;3.95;1.50;;;;;;;16.80;96.78;101016.97;4794264;30;20073;-87
2022/06/01 08:16:46;;;;;;;3.70;1.33;;;;;;;16.87;94.56;101025.03;4788733;30;20049;-87
2022/06/01 08:19:17;;;;;;;4.30;1.52;;;;;;;16.81;94.01;101018.63;4799357;30;20062;-86
2022/06/01 08:21:43;;;;;;;5.90;1.80;;;;;;;16.55;92.74;101021.75;4784405;30;20039;-85
2022/06/01 08:24:09;;;;;;;8.20;1.67;;;;;;;16.99;93.40;101023.13;4787809;30;20032;-85
2022/06/01 08:26:35;;;;;;;3.25;1.38;;;;;;;17.20;91.82;101020.88;4789177;29;20150;-87
2022/06/01 08:29:02;;;;;;;3.78;1.10;;;;;;;17.04;89.69;101008.81;4790511;29;20055;-84
2022/06/01 08:31:29;;;;;;;4.00;1.10;;;;;;;16.94;90.26;101016.75;4784055;30;20043;-87
2022/06/01 08:33:58;;;;;;;2.75;1.08;;;;;;;16.86;89.26;101026.09;4784514;30;20040;-88
2022/06/01 08:36:24;;;;;;;2.78;1.10;;;;;;;16.73;89.94;101020.84;4789750;30;20035;-87
2022/06/01 08:38:50;;;;;;;3.10;1.13;;;;;;;16.41;91.41;101019.25;4788852;30;20146;-87
2022/06/01 08:41:18;;;;;;;4.13;1.35;;;;;;;16.56;92.33;101020.72;4777803;30;20028;-87
2022/06/01 08:43:47;;;;;;;2.60;1.00;;;;;;;16.37;91.70;101017.22;4785726;30;20024;-88
2022/06/01 08:46:14;;;;;;;3.35;1.02;;;;;;;16.37;90.85;101028.91;4785152;30;20063;-87
2022/06/01 08:48:44;;;;;;;4.35;1.10;;;;;;;16.54;90.67;101025.53;4797078;30;20027;-86
2022/06/01 08:51:10;;;;;;;2.67;1.00;;;;;;;16.98;90.69;101023.34;4796999;29;20027;-88
2022/06/01 08:53:36;;;;;;;3.97;1.20;;;;;;;17.09;89.00;101014.41;4794240;29;20063;-87
2022/06/01 08:56:09;;;;;;;2.85;1.10;;;;;;;17.32;87.33;101019.81;4776205;30;20031;-87
2022/06/01 08:59:03;;;;;;;4.95;1.25;;;;;;;17.16;87.33;101003.41;4794932;30;20019;-87
2022/06/01 09:02:06;;;;;;;3.28;1.40;;;;;;;17.50;88.75;101028.88;4798427;29;20020;-87
2022/06/01 09:04:47;;;;;;;4.95;1.30;;;;;;;18.02;85.79;101013.38;4797122;30;20111;-87
2022/06/01 09:07:21;;;;;;;5.97;1.10;;;;;;;18.15;84.96;101020.41;4789989;29;20040;-88
2022/06/01 09:09:52;;;;;;;2.67;1.30;;;;;;;17.56;85.63;101031.47;4793123;29;20032;-87
2022/06/01 09:12:18;;;;;;;3.58;1.17;;;;;;;17.07;86.92;101038.25;4795013;30;20071;-87
2022/06/01 09:14:48;;;;;;;3.60;1.27;;;;;;;16.71;87.81;101009.38;4794390;30;20043;-87
2022/06/01 09:17:14;;;;;;;4.50;1.33;;;;;;;16.17;89.70;101017.53;4792926;29;20031;-87
2022/06/01 09:22:39;;;;;;;3.42;1.20;;;;;;;15.92;91.10;101010.34;4788611;30;20866;-87
2022/06/01 09:25:13;;;;;;;2.17;1.10;;;;;;;15.76;91.38;101023.69;4793497;30;20052;-88
2022/06/01 09:27:40;;;;;;;4.22;1.10;;;;;;;15.68;92.97;101017.53;4792947;29;20039;-87
2022/06/01 09:30:25;;;;;;;2.67;1.10;;;;;;;15.83;93.16;101025.31;4790059;30;20028;-87
2022/06/01 09:33:15;;;;;;;5.00;1.30;;;;;;;15.87;92.40;101021.06;4791101;30;20122;-88
2022/06/01 09:35:46;;;;;;;2.33;1.42;;;;;;;16.14;92.94;101004.41;4793651;30;20038;-88
2022/06/01 09:38:37;;;;;;;4.07;1.40;;;;;;;16.33;89.94;101018.75;4792232;30;20045;-88
2022/06/01 09:41:20;;;;;;;2.50;1.30;;;;;;;16.36;91.03;101000.13;4789756;29;20044;-87
2022/06/01 09:43:54;;;;;;;3.78;1.40;;;;;;;16.49;91.45;101028.97;4792846;30;20074;-89
2022/06/01 09:46:36;;;;;;;4.00;1.27;;;;;;;16.27;91.89;101033.25;4797552;29;20042;-89
2022/06/01 09:49:05;;;;;;;3.67;1.20;;;;;;;16.30;90.86;101017.31;4791471;29;20561;-89
2022/06/01 09:51:34;;;;;;;3.58;1.48;;;;;;;16.41;91.19;101016.53;4793105;30;20091;-89
2022/06/01 09:54:26;;;;;;;3.65;1.55;;;;;;;16.49;89.56;101018.09;4793512;29;20142;-89
2022/06/01 09:56:52;;;;;;;2.78;1.30;;;;;;;16.54;89.33;101033.69;4800979;30;20031;-88
2022/06/01 10:07:48;;;;;;;3.92;1.30;;;;;;;16.91;87.47;101018.88;4794439;30;20351;-88
2022/06/01 10:10:25;;;;;;;4.90;1.40;;;;;;;16.48;86.30;101019.13;4790384;30;20040;-88
2022/06/01 10:12:55;;;;;;;6.05;1.48;;;;;;;16.48;86.19;101012.88;4791417;29;20056;-85
2022/06/01 10:15:42;;;;;;;4.38;1.20;;;;;;;16.35;85.26;101017.44;4788801;30;20032;-84
2022/06/01 10:18:17;;;;;;;3.28;1.20;;;;;;;16.50;86.88;101017.03;4782638;30;20122;-84
2022/06/01 10:20:55;;;;;;;4.15;1.30;;;;;;;16.51;88.32;101023.28;4793569;30;20038;-86
2022/06/01 10:23:52;;;;;;;2.65;1.30;;;;;;;16.80;87.21;101013.44;4783527;30;20032;-85
2022/06/01 10:26:30;;;;;;;5.68;1.50;;;;;;;16.43;86.69;101021.75;4790368;29;20024;-87
2022/06/01 10:29:06;;;;;;;3.83;1.42;;;;;;;16.59;85.41;101018.34;4783252;29;20103;-86
2022/06/01 10:31:42;;;;;;;5.38;1.30;;;;;;;16.40;85.56;101005.91;4793294;30;20378;-84
2022/06/01 10:34:11;;;;;;;4.90;1.50;;;;;;;16.24;86.53;101023.69;4787324;30;20100;-85
2022/06/01 10:36:55;;;;;;;4.88;1.40;;;;;;;16.46;87.21;101026.72;4787741;30;20066;-86
2022/06/01 10:39:30;;;;;;;2.22;1.50;;;;;;;16.55;83.01;101019.84;4790143;30;20043;-86
2022/06/01 10:42:08;;;;;;;2.38;1.38;;;;;;;16.44;84.28;101024.22;4788789;30;20033;-86
2022/06/01 10:45:12;;;;;;;4.85;1.33;;;;;;;16.72;86.36;101030.03;4786360;30;20111;-84
2022/06/01 10:47:54;;;;;;;3.83;1.50;;;;;;;16.80;86.16;101022.41;4789415;30;20047;-83
2022/06/01 10:50:24;;;;;;;3.65;1.40;;;;;;;16.81;86.29;101024.06;4789223;30;20046;-84
2022/06/01 10:52:54;;;;;;;5.25;1.67;;;;;;;16.87;86.04;101028.56;4790279;30;20054;-83
2022/06/01 10:55:40;;;;;;;3.90;1.60;;;;;;;16.85;84.30;101027.13;4781017;30;20185;-86
2022/06/01 10:58:06;;;;;;;4.35;1.67;;;;;;;16.75;86.25;101029.59;4788170;30;20038;-84
2022/06/01 11:00:45;;;;;;;4.13;1.40;;;;;;;17.14;86.60;101009.06;4779150;30;20478;-84
2022/06/01 11:03:14;;;;;;;3.97;1.13;;;;;;;17.75;85.97;101028.59;4785514;30;20050;-84
2022/06/01 11:06:14;;;;;;;3.40;1.25;;;;;;;18.08;82.91;101030.63;4794115;29;20061;-84
2022/06/01 11:09:02;;;;;;;4.40;1.50;;;;;;;17.69;81.70;101021.41;4790528;30;20019;-87
2022/06/01 11:11:47;;;;;;;3.92;1.25;;;;;;;17.87;83.76;101031.28;4795049;30;20088;-87
2022/06/01 11:14:49;;;;;;;3.25;1.27;;;;;;;17.96;82.07;101030.66;4798084;30;20032;-87
2022/06/01 11:17:15;;;;;;;2.92;1.10;;;;;;;18.11;81.39;101029.31;4787129;29;20051;-86
2022/06/01 11:20:04;;;;;;;2.55;1.20;;;;;;;18.43;80.16;101024.16;4791117;30;20031;-85
2022/06/01 11:22:51;;;;;;;3.90;1.10;;;;;;;18.51;79.63;101015.59;4794553;29;20047;-87
2022/06/01 11:25:23;;;;;;;2.25;1.20;;;;;;;18.41;78.42;101016.25;4785027;30;20036;-85
2022/06/01 11:28:04;;;;;;;3.42;1.20;;;;;;;18.51;78.87;101023.78;4791164;29;20036;-85
2022/06/01 11:30:51;;;;;;;2.58;1.30;;;;;;;18.66;76.85;101006.84;4790840;30;20051;-87
2022/06/01 11:33:32;;;;;;;5.35;1.50;;;;;;;18.59;76.66;100998.00;4804933;30;20070;-87
2022/06/01 11:36:12;;;;;;;5.53;1.50;;;;;;;18.66;77.16;101013.13;4794194;30;20042;-87
2022/06/01 11:38:46;;;;;;;4.72;1.50;;;;;;;18.64;76.02;100989.91;4798576;29;20032;-88
2022/06/01 11:41:32;;;;;;;2.65;1.20;;;;;;;18.95;75.15;101002.16;4792768;30;20062;-85
2022/06/01 11:44:02;;;;;;;5.55;1.15;;;;;;;19.10;75.28;101001.53;4793749;30;20024;-88
2022/06/01 11:46:50;;;;;;;3.58;1.40;;;;;;;19.07;74.00;101008.31;4805923;29;20034;-88
2022/06/01 11:49:26;;;;;;;2.88;1.38;;;;;;;19.01;75.35;101007.44;4789446;30;20039;-86
2022/06/01 11:51:51;;;;;;;3.15;1.05;;;;;;;19.02;74.98;101006.34;4800305;30;20635;-86
2022/06/01 11:54:36;;;;;;;4.85;1.33;;;;;;;19.12;74.73;101005.66;4773108;30;20062;-85
2022/06/01 11:57:21;;;;;;;2.30;1.00;;;;;;;19.02;72.78;100995.44;4813408;29;20046;-86
2022/06/01 11:59:53;;;;;;;5.40;1.58;;;;;;;18.99;72.81;101006.03;4793237;30;20051;-86
2022/06/01 12:02:41;;;;;;;1.67;1.00;;;;;;;19.06;72.59;101008.56;4789810;30;20088;-82